createdAt,value
2022-09-26T00:03:27.847Z,13.90
2022-09-26T00:07:09.921Z,14.00
2022-09-26T00:10:58.891Z,14.00
2022-09-26T00:14:40.711Z,14.10
2022-09-26T00:18:23.319Z,14.10
2022-09-26T00:22:05.088Z,14.10
2022-09-26T00:25:48.475Z,14.00
2022-09-26T00:29:30.185Z,13.80
2022-09-26T00:33:12.450Z,13.60
2022-09-26T00:36:54.167Z,13.40
2022-09-26T00:40:36.256Z,13.20
2022-09-26T00:44:42.607Z,13.00
2022-09-26T00:48:25.189Z,12.70
2022-09-26T00:52:12.367Z,12.60
2022-09-26T00:56:02.902Z,12.50
2022-09-26T00:59:48.874Z,12.30
2022-09-26T01:03:31.905Z,12.10
2022-09-26T01:07:23.525Z,12.00
2022-09-26T01:11:06.050Z,11.90
2022-09-26T01:14:51.534Z,11.80
2022-09-26T01:18:34.084Z,11.80
2022-09-26T01:22:37.579Z,11.70
2022-09-26T01:26:19.239Z,11.70
2022-09-26T01:30:38.208Z,11.70
2022-09-26T01:34:38.078Z,11.60
2022-09-26T01:38:33.098Z,11.60
2022-09-26T01:42:37.555Z,11.70
2022-09-26T01:46:38.380Z,11.70
2022-09-26T01:50:25.898Z,11.70
2022-09-26T01:54:23.201Z,11.80
2022-09-26T01:58:16.152Z,11.80
2022-09-26T02:02:05.027Z,11.70
2022-09-26T02:05:53.739Z,11.80
2022-09-26T02:09:42.657Z,11.70
2022-09-26T02:13:30.096Z,11.80
2022-09-26T02:17:17.776Z,11.80
2022-09-26T02:21:09.803Z,11.90
2022-09-26T02:24:52.718Z,11.90
2022-09-26T02:28:34.582Z,11.90
2022-09-26T02:32:20.585Z,12.00
2022-09-26T02:36:07.485Z,12.00
2022-09-26T02:39:51.901Z,12.10
2022-09-26T02:43:44.264Z,12.10
2022-09-26T02:47:51.173Z,12.10
2022-09-26T02:51:51.201Z,12.10
2022-09-26T02:55:39.117Z,12.10
2022-09-26T02:59:50.210Z,12.20
2022-09-26T03:03:50.625Z,12.20
2022-09-26T03:07:50.991Z,12.20
2022-09-26T03:11:35.085Z,12.20
2022-09-26T03:15:19.569Z,12.30
2022-09-26T03:19:09.225Z,12.30
2022-09-26T03:22:51.285Z,12.30
2022-09-26T03:26:34.150Z,12.40
2022-09-26T03:30:18.035Z,12.40
2022-09-26T03:33:59.754Z,12.40
2022-09-26T03:37:41.566Z,12.40
2022-09-26T03:41:24.265Z,12.40
2022-09-26T03:45:08.736Z,12.40
2022-09-26T03:48:51.031Z,12.50
2022-09-26T03:52:32.761Z,12.50
2022-09-26T03:56:18.038Z,12.50
2022-09-26T03:59:59.737Z,12.60
2022-09-26T04:03:49.298Z,12.60
2022-09-26T04:07:32.182Z,12.60
2022-09-26T04:11:16.162Z,12.60
2022-09-26T04:14:57.860Z,12.70
2022-09-26T04:18:39.697Z,12.70
2022-09-26T04:22:21.395Z,12.70
2022-09-26T04:26:12.275Z,12.80
2022-09-26T04:29:53.886Z,12.80
2022-09-26T04:33:35.698Z,12.80
2022-09-26T04:37:17.690Z,12.80
2022-09-26T04:41:07.683Z,12.90
2022-09-26T04:44:49.430Z,12.90
2022-09-26T04:48:31.125Z,13.00
2022-09-26T04:52:13.610Z,13.00
2022-09-26T04:55:55.309Z,13.00
2022-09-26T04:59:37.098Z,13.10
2022-09-26T05:03:19.095Z,13.10
2022-09-26T05:07:00.988Z,13.10
2022-09-26T05:10:43.559Z,13.10
2022-09-26T05:14:25.466Z,13.10
2022-09-26T05:18:08.606Z,13.20
2022-09-26T05:21:50.306Z,13.20
2022-09-26T05:25:56.845Z,13.30
2022-09-26T05:29:38.521Z,13.30
2022-09-26T05:33:21.238Z,13.40
2022-09-26T05:37:03.013Z,13.40
2022-09-26T05:40:56.848Z,13.50
2022-09-26T05:44:39.657Z,13.50
2022-09-26T05:48:21.377Z,13.50
2022-09-26T05:52:03.989Z,13.50
2022-09-26T05:55:52.369Z,13.50
2022-09-26T05:59:34.122Z,13.40
2022-09-26T06:03:16.689Z,13.20
2022-09-26T06:06:58.906Z,13.10
2022-09-26T06:10:40.611Z,13.00
2022-09-26T06:14:25.401Z,12.90
2022-09-26T06:18:07.151Z,12.70
2022-09-26T06:21:48.945Z,12.60
2022-09-26T06:25:30.690Z,12.50
2022-09-26T06:29:12.715Z,12.50
2022-09-26T06:32:54.597Z,12.50
2022-09-26T06:36:36.447Z,12.30
2022-09-26T06:40:18.261Z,12.30
2022-09-26T06:44:01.827Z,12.30
2022-09-26T06:47:43.562Z,12.30
2022-09-26T06:51:25.258Z,12.30
2022-09-26T06:55:08.569Z,12.30
2022-09-26T06:58:50.255Z,12.30
2022-09-26T07:02:31.982Z,12.30
2022-09-26T07:06:14.322Z,12.30
2022-09-26T07:09:56.934Z,12.30
2022-09-26T07:13:39.114Z,12.20
2022-09-26T07:17:20.910Z,12.10
2022-09-26T07:21:06.149Z,12.10
2022-09-26T07:24:50.237Z,12.10
2022-09-26T07:28:32.333Z,12.10
2022-09-26T07:32:14.204Z,12.10
2022-09-26T07:35:59.818Z,12.10
2022-09-26T07:39:45.171Z,12.10
2022-09-26T07:44:00.178Z,12.30
2022-09-26T07:47:51.600Z,12.40
2022-09-26T07:51:33.515Z,12.70
2022-09-26T07:55:20.451Z,12.90
2022-09-26T07:59:05.188Z,13.10
2022-09-26T08:02:47.327Z,13.20
2022-09-26T08:06:33.004Z,13.30
2022-09-26T08:10:22.069Z,13.30
2022-09-26T08:14:04.166Z,13.40
2022-09-26T08:17:45.921Z,13.50
2022-09-26T08:21:27.641Z,13.60
2022-09-26T08:25:09.795Z,13.80
2022-09-26T08:28:51.555Z,14.00
2022-09-26T08:32:33.795Z,14.10
2022-09-26T08:36:16.327Z,14.30
2022-09-26T08:39:58.277Z,14.50
2022-09-26T08:43:49.404Z,14.60
2022-09-26T08:47:53.445Z,14.70
2022-09-26T08:51:37.884Z,14.60
2022-09-26T08:55:25.473Z,14.60
2022-09-26T08:59:31.889Z,14.60
2022-09-26T09:03:40.982Z,14.70
2022-09-26T09:07:24.923Z,14.70
2022-09-26T09:11:35.079Z,14.70
2022-09-26T09:15:33.291Z,14.80
2022-09-26T09:19:30.393Z,15.10
2022-09-26T09:23:44.050Z,15.30
2022-09-26T09:28:04.048Z,15.80
2022-09-26T09:31:47.082Z,16.30
2022-09-26T09:35:43.522Z,17.20
2022-09-26T09:39:37.426Z,17.90
2022-09-26T09:43:53.772Z,18.00
2022-09-26T09:47:39.506Z,18.10
2022-09-26T09:51:45.345Z,18.10
2022-09-26T09:55:45.711Z,17.90
2022-09-26T09:59:45.586Z,18.00
2022-09-26T10:03:39.935Z,18.70
2022-09-26T10:07:21.642Z,19.20
2022-09-26T10:11:13.804Z,19.80
2022-09-26T10:15:02.120Z,20.40
2022-09-26T10:19:04.028Z,20.30
2022-09-26T10:22:46.154Z,20.30
2022-09-26T10:26:34.658Z,20.10
2022-09-26T10:30:19.808Z,20.60
2022-09-26T10:34:24.663Z,21.30
2022-09-26T10:38:19.790Z,21.10
2022-09-26T10:42:03.355Z,21.50
2022-09-26T10:45:45.105Z,22.30
2022-09-26T10:49:37.336Z,22.60
2022-09-26T10:53:23.026Z,22.40
2022-09-26T10:57:09.427Z,21.90
2022-09-26T11:00:51.684Z,21.30
2022-09-26T11:04:53.614Z,20.80
2022-09-26T11:08:38.180Z,20.30
2022-09-26T11:12:25.785Z,19.70
2022-09-26T11:16:13.104Z,19.30
2022-09-26T11:20:02.811Z,19.40
2022-09-26T11:24:11.678Z,19.60
2022-09-26T11:28:07.333Z,19.50
2022-09-26T11:31:49.198Z,19.30
2022-09-26T11:35:46.189Z,19.20
2022-09-26T11:39:51.675Z,19.40
2022-09-26T11:43:44.931Z,20.10
2022-09-26T11:47:29.688Z,20.50
2022-09-26T11:52:00.680Z,20.40
2022-09-26T11:56:01.493Z,19.70
2022-09-26T12:00:15.752Z,18.80
2022-09-26T12:04:24.695Z,18.30
2022-09-26T12:08:30.229Z,18.00
2022-09-26T12:12:27.675Z,18.20
2022-09-26T12:16:21.993Z,18.90
2022-09-26T12:20:22.336Z,19.40
2022-09-26T12:24:06.810Z,20.30
2022-09-26T12:28:30.820Z,21.30
2022-09-26T12:32:19.168Z,22.00
2022-09-26T12:36:09.030Z,22.80
2022-09-26T12:40:09.637Z,23.70
2022-09-26T12:44:22.620Z,25.00
2022-09-26T12:48:25.298Z,26.20
2022-09-26T12:52:12.977Z,27.20
2022-09-26T12:56:20.855Z,27.90
2022-09-26T13:00:16.589Z,28.50
2022-09-26T13:04:13.217Z,29.00
2022-09-26T13:08:19.130Z,28.90
2022-09-26T13:12:06.802Z,28.90
2022-09-26T13:16:34.064Z,28.10
2022-09-26T13:20:43.346Z,26.90
2022-09-26T13:24:47.894Z,26.00
2022-09-26T13:28:47.631Z,25.40
2022-09-26T13:32:49.912Z,24.80
2022-09-26T13:36:33.889Z,24.30
2022-09-26T13:40:24.515Z,24.10
2022-09-26T13:44:38.712Z,23.90
2022-09-26T13:48:38.475Z,23.50
2022-09-26T13:52:26.805Z,23.30
2022-09-26T13:56:34.887Z,23.50
2022-09-26T14:00:31.659Z,23.80
2022-09-26T14:04:17.812Z,24.30
2022-09-26T14:08:44.418Z,24.00
2022-09-26T14:12:51.385Z,23.20
2022-09-26T14:16:35.782Z,22.60
2022-09-26T14:20:32.517Z,23.50
2022-09-26T14:24:52.093Z,25.50
2022-09-26T14:28:38.793Z,27.80
2022-09-26T14:32:42.454Z,29.50
2022-09-26T14:36:30.806Z,30.30
2022-09-26T14:40:30.752Z,31.30
2022-09-26T14:44:19.021Z,31.20
2022-09-26T14:48:22.502Z,30.10
2022-09-26T14:52:08.896Z,28.40
2022-09-26T14:56:06.135Z,26.90
2022-09-26T14:59:48.282Z,25.60
2022-09-26T15:03:33.630Z,24.60
2022-09-26T15:07:27.164Z,23.80
2022-09-26T15:11:19.813Z,23.30
2022-09-26T15:15:27.466Z,22.80
2022-09-26T15:19:20.894Z,22.20
2022-09-26T15:23:10.420Z,21.70
2022-09-26T15:26:53.477Z,21.40
2022-09-26T15:30:38.371Z,20.90
2022-09-26T15:34:33.208Z,20.60
2022-09-26T15:38:15.176Z,20.30
2022-09-26T15:42:45.294Z,20.00
2022-09-26T15:46:27.596Z,19.80
2022-09-26T15:50:16.702Z,19.60
2022-09-26T15:54:04.701Z,19.40
2022-09-26T15:57:48.368Z,19.40
2022-09-26T16:01:31.785Z,19.40
2022-09-26T16:05:14.740Z,19.30
2022-09-26T16:09:12.495Z,19.20
2022-09-26T16:12:55.595Z,19.00
2022-09-26T16:16:37.566Z,18.90
2022-09-26T16:20:19.278Z,19.10
2022-09-26T16:24:26.836Z,19.30
2022-09-26T16:28:11.582Z,20.00
2022-09-26T16:31:53.324Z,20.50
2022-09-26T16:35:36.892Z,20.30
2022-09-26T16:39:30.093Z,19.90
2022-09-26T16:43:12.631Z,19.30
2022-09-26T16:46:55.909Z,18.80
2022-09-26T16:50:38.043Z,18.30
2022-09-26T16:54:20.529Z,17.90
2022-09-26T16:58:05.155Z,17.60
2022-09-26T17:01:55.990Z,17.30
2022-09-26T17:05:37.739Z,17.00
2022-09-26T17:09:28.165Z,16.70
2022-09-26T17:13:14.578Z,16.50
2022-09-26T17:16:58.251Z,16.40
2022-09-26T17:20:44.684Z,16.20
2022-09-26T17:24:29.263Z,15.90
2022-09-26T17:28:19.184Z,15.70
2022-09-26T17:32:08.907Z,15.50
2022-09-26T17:35:51.810Z,15.40
2022-09-26T17:39:33.552Z,15.30
2022-09-26T17:43:15.348Z,15.20
2022-09-26T17:46:57.654Z,14.90
2022-09-26T17:50:39.914Z,14.60
2022-09-26T17:54:27.087Z,14.20
2022-09-26T17:58:10.421Z,13.90
2022-09-26T18:01:58.493Z,13.60
2022-09-26T18:05:40.594Z,13.30
2022-09-26T18:09:22.756Z,13.20
2022-09-26T18:13:13.325Z,13.00
2022-09-26T18:16:55.297Z,12.90
2022-09-26T18:20:39.375Z,12.80
2022-09-26T18:24:23.325Z,12.70
2022-09-26T18:28:11.437Z,12.60
2022-09-26T18:31:53.341Z,12.50
2022-09-26T18:35:35.138Z,12.40
2022-09-26T18:39:17.040Z,12.40
2022-09-26T18:42:58.885Z,12.40
2022-09-26T18:46:44.318Z,12.30
2022-09-26T18:50:38.356Z,12.40
2022-09-26T18:54:20.344Z,12.40
2022-09-26T18:58:20.559Z,12.30
2022-09-26T19:02:04.167Z,12.30
2022-09-26T19:05:46.003Z,12.20
2022-09-26T19:09:36.661Z,12.10
2022-09-26T19:13:18.383Z,12.10
2022-09-26T19:17:00.477Z,12.10
2022-09-26T19:20:42.245Z,12.20
2022-09-26T19:24:34.794Z,12.20
2022-09-26T19:28:23.623Z,12.20
2022-09-26T19:32:07.269Z,12.20
2022-09-26T19:35:49.073Z,12.20
2022-09-26T19:39:31.784Z,12.20
2022-09-26T19:43:14.075Z,12.20
2022-09-26T19:46:56.310Z,12.20
2022-09-26T19:50:39.797Z,12.20
2022-09-26T19:54:21.723Z,12.20
2022-09-26T19:58:12.701Z,12.20
2022-09-26T20:01:54.610Z,12.00
2022-09-26T20:05:36.692Z,11.90
2022-09-26T20:09:19.653Z,11.70
2022-09-26T20:13:01.439Z,11.60
2022-09-26T20:16:43.302Z,11.40
2022-09-26T20:20:26.185Z,11.30
2022-09-26T20:24:16.425Z,11.20
2022-09-26T20:27:58.751Z,11.20
2022-09-26T20:31:42.194Z,11.10
2022-09-26T20:35:24.118Z,11.10
2022-09-26T20:39:12.090Z,11.10
2022-09-26T20:43:02.087Z,11.10
2022-09-26T20:46:53.312Z,11.10
2022-09-26T20:50:38.428Z,11.10
2022-09-26T20:54:29.796Z,11.10
2022-09-26T20:58:11.740Z,11.10
2022-09-26T21:01:54.406Z,11.10
2022-09-26T21:05:36.904Z,11.00
2022-09-26T21:09:20.058Z,11.10
2022-09-26T21:13:02.264Z,11.00
2022-09-26T21:16:52.238Z,11.00
2022-09-26T21:20:34.713Z,10.90
2022-09-26T21:24:24.794Z,10.80
2022-09-26T21:28:21.410Z,10.90
2022-09-26T21:32:04.541Z,10.90
2022-09-26T21:35:46.821Z,11.00
2022-09-26T21:39:28.712Z,11.10
2022-09-26T21:43:16.938Z,11.10
2022-09-26T21:46:58.635Z,11.20
2022-09-26T21:50:44.292Z,11.20
2022-09-26T21:54:32.700Z,11.20
2022-09-26T21:58:20.714Z,11.20
2022-09-26T22:02:02.535Z,11.20
2022-09-26T22:05:44.283Z,11.20
2022-09-26T22:09:26.168Z,11.30
2022-09-26T22:13:07.873Z,11.30
2022-09-26T22:16:49.667Z,11.30
2022-09-26T22:20:31.434Z,11.40
2022-09-26T22:24:13.168Z,11.30
2022-09-26T22:27:55.213Z,11.30
2022-09-26T22:31:36.907Z,11.30
2022-09-26T22:35:18.671Z,11.40
2022-09-26T22:39:00.516Z,11.30
2022-09-26T22:42:42.301Z,11.30
2022-09-26T22:46:24.088Z,11.20
2022-09-26T22:50:06.049Z,11.20
2022-09-26T22:53:47.901Z,11.20
2022-09-26T22:57:32.681Z,11.00
2022-09-26T23:01:17.273Z,10.90
2022-09-26T23:04:59.006Z,10.90
2022-09-26T23:08:40.882Z,10.90
2022-09-26T23:12:22.821Z,10.80
2022-09-26T23:16:13.239Z,10.80
2022-09-26T23:19:55.113Z,10.90
2022-09-26T23:23:37.664Z,10.80
2022-09-26T23:27:19.651Z,10.90
2022-09-26T23:31:06.476Z,10.70
2022-09-26T23:34:48.263Z,10.70
2022-09-26T23:38:30.170Z,10.70
2022-09-26T23:42:11.888Z,10.80
2022-09-26T23:45:53.853Z,10.80
2022-09-26T23:49:35.605Z,10.80
2022-09-26T23:53:17.628Z,10.80
2022-09-26T23:57:00.158Z,10.80
